createdAt,value
2023-05-20T11:01:46.454Z,54.40
2023-05-20T11:03:18.669Z,74.50
2023-05-20T11:04:50.862Z,112.25
2023-05-20T11:06:28.949Z,145.00
2023-05-20T11:08:04.447Z,147.50
2023-05-20T11:09:40.203Z,147.75
2023-05-20T11:11:15.509Z,118.00
2023-05-20T11:12:48.347Z,94.00
2023-05-20T11:14:21.258Z,102.50
2023-05-20T11:15:53.311Z,97.50
2023-05-20T11:17:25.302Z,129.40
2023-05-20T11:18:57.478Z,121.20
2023-05-20T11:20:29.922Z,88.50
2023-05-20T11:22:01.843Z,113.20
2023-05-20T11:23:33.869Z,87.00
2023-05-20T11:25:07.551Z,90.25
2023-05-20T11:26:40.070Z,103.75
2023-05-20T11:28:15.124Z,118.75
2023-05-20T11:29:49.621Z,120.80
2023-05-20T11:31:21.952Z,126.40
2023-05-20T11:32:58.808Z,94.00
2023-05-20T11:34:37.446Z,75.00
2023-05-20T11:36:23.897Z,78.50
2023-05-20T11:38:04.315Z,80.75
2023-05-20T11:39:37.362Z,109.75
2023-05-20T11:41:09.315Z,104.75
2023-05-20T11:42:41.195Z,78.25
2023-05-20T11:44:15.989Z,80.75
2023-05-20T11:45:52.648Z,82.25
2023-05-20T11:47:27.986Z,82.50
2023-05-20T11:48:59.978Z,79.25
2023-05-20T11:50:41.241Z,79.75
2023-05-20T11:52:13.698Z,77.75
2023-05-20T11:53:45.803Z,79.50
2023-05-20T11:55:17.811Z,79.25
2023-05-20T11:56:49.863Z,77.00
2023-05-20T11:58:23.089Z,78.25
2023-05-20T11:59:54.994Z,77.75
2023-05-20T12:01:28.611Z,82.75
2023-05-20T12:03:01.228Z,86.75
2023-05-20T12:04:33.386Z,76.25
2023-05-20T12:06:05.373Z,73.50
2023-05-20T12:07:37.271Z,75.25
2023-05-20T12:09:10.247Z,71.75
2023-05-20T12:10:42.216Z,74.33
2023-05-20T12:12:14.415Z,76.50
2023-05-20T12:13:46.824Z,78.25
2023-05-20T12:15:18.789Z,85.00
2023-05-20T12:16:50.992Z,80.00
2023-05-20T12:18:22.963Z,78.75
2023-05-20T12:19:54.955Z,76.50
2023-05-20T12:21:27.259Z,74.50
2023-05-20T12:23:00.091Z,75.00
2023-05-20T12:24:32.174Z,117.50
2023-05-20T12:26:04.126Z,109.75
2023-05-20T12:27:36.142Z,95.00
2023-05-20T12:29:08.090Z,83.75
2023-05-20T12:30:40.013Z,79.00
2023-05-20T12:32:12.222Z,78.50
2023-05-20T12:33:44.378Z,76.75
2023-05-20T12:35:16.408Z,75.25
2023-05-20T12:36:48.618Z,72.00
2023-05-20T12:38:20.491Z,81.25
2023-05-20T12:39:52.577Z,80.25
2023-05-20T12:41:24.473Z,83.25
2023-05-20T12:42:56.405Z,77.75
2023-05-20T12:44:28.373Z,93.00
2023-05-20T12:46:00.347Z,143.00
2023-05-20T12:47:32.742Z,138.50
2023-05-20T12:49:04.704Z,100.00
2023-05-20T12:50:36.755Z,131.20
2023-05-20T12:52:15.320Z,121.00
2023-05-20T12:53:53.790Z,101.00
2023-05-20T12:55:25.835Z,109.20
2023-05-20T12:56:58.325Z,104.25
2023-05-20T12:58:30.277Z,113.75
2023-05-20T13:00:02.116Z,82.75
2023-05-20T13:01:34.169Z,94.25
2023-05-20T13:03:07.305Z,102.75
2023-05-20T13:04:39.492Z,84.75
2023-05-20T13:06:11.514Z,91.25
2023-05-20T13:07:43.527Z,76.75
2023-05-20T13:09:15.534Z,81.50
2023-05-20T13:10:47.437Z,81.00
2023-05-20T13:12:19.421Z,77.00
2023-05-20T13:13:51.674Z,75.50
2023-05-20T13:15:23.588Z,73.25
2023-05-20T13:16:56.480Z,73.50
2023-05-20T13:18:28.358Z,72.75
2023-05-20T13:20:00.324Z,67.00
2023-05-20T13:21:32.302Z,68.50
2023-05-20T13:23:04.220Z,67.00
2023-05-20T13:24:36.300Z,63.80
2023-05-20T13:26:09.258Z,63.20
2023-05-20T13:27:41.267Z,65.60
2023-05-20T13:29:13.262Z,65.00
2023-05-20T13:30:45.158Z,65.00
2023-05-20T13:32:17.208Z,62.40
2023-05-20T13:33:49.261Z,59.00
2023-05-20T13:35:21.356Z,62.20
2023-05-20T13:36:53.240Z,37.00
2023-05-20T13:38:25.366Z,58.40
2023-05-20T13:39:57.382Z,57.20
2023-05-20T13:41:30.471Z,59.60
2023-05-20T13:43:02.389Z,58.20
2023-05-20T13:44:34.469Z,57.20
2023-05-20T13:46:06.412Z,56.60
2023-05-20T13:47:38.470Z,48.80
2023-05-20T13:49:10.489Z,53.80
2023-05-20T13:50:42.647Z,53.60
2023-05-20T13:52:14.639Z,46.80
2023-05-20T13:53:46.552Z,53.40
2023-05-20T13:55:18.622Z,52.60
2023-05-20T13:56:50.704Z,50.40
2023-05-20T13:58:22.769Z,54.00
2023-05-20T13:59:54.730Z,52.80
2023-05-20T14:01:26.679Z,58.60
2023-05-20T14:03:00.979Z,54.80
2023-05-20T14:04:38.233Z,62.00
2023-05-20T14:06:10.287Z,57.00
2023-05-20T14:07:42.304Z,62.60
2023-05-20T14:09:14.336Z,65.20
2023-05-20T14:10:46.313Z,61.40
2023-05-20T14:12:18.224Z,62.80
2023-05-20T14:13:50.174Z,62.20
2023-05-20T14:15:22.220Z,58.40
2023-05-20T14:16:54.314Z,64.40
2023-05-20T14:18:26.296Z,63.80
2023-05-20T14:19:58.482Z,62.80
2023-05-20T14:21:31.933Z,61.80
2023-05-20T14:23:03.865Z,63.00
2023-05-20T14:24:36.061Z,69.50
2023-05-20T14:26:08.332Z,70.20
2023-05-20T14:27:40.312Z,74.75
2023-05-20T14:29:12.246Z,81.75
2023-05-20T14:30:44.308Z,88.25
2023-05-20T14:32:16.537Z,83.00
2023-05-20T14:33:48.647Z,97.25
2023-05-20T14:35:20.810Z,78.50
2023-05-20T14:36:52.912Z,81.00
2023-05-20T14:38:26.875Z,73.50
2023-05-20T14:39:58.971Z,78.50
2023-05-20T14:41:31.193Z,75.25
2023-05-20T14:43:03.184Z,76.25
2023-05-20T14:44:35.351Z,81.00
2023-05-20T14:46:07.267Z,79.50
2023-05-20T14:47:40.338Z,79.25
2023-05-20T14:49:12.307Z,74.50
2023-05-20T14:50:44.303Z,72.75
2023-05-20T14:52:17.418Z,67.00
2023-05-20T14:53:49.331Z,68.00
2023-05-20T14:55:21.360Z,59.25
2023-05-20T14:56:53.447Z,65.20
2023-05-20T14:58:25.582Z,65.00
2023-05-20T14:59:57.459Z,64.20
2023-05-20T15:01:29.625Z,67.60
2023-05-20T15:03:01.732Z,69.40
2023-05-20T15:04:33.853Z,68.60
2023-05-20T15:06:05.915Z,63.40
2023-05-20T15:07:38.552Z,61.00
2023-05-20T15:09:10.556Z,62.40
2023-05-20T15:10:42.467Z,60.00
2023-05-20T15:12:14.378Z,62.20
2023-05-20T15:13:46.721Z,63.40
2023-05-20T15:15:18.612Z,55.80
2023-05-20T15:16:50.725Z,63.60
2023-05-20T15:18:22.745Z,61.60
2023-05-20T15:19:54.638Z,59.80
2023-05-20T15:21:26.587Z,43.40
2023-05-20T15:22:59.835Z,58.40
2023-05-20T15:24:33.378Z,56.00
2023-05-20T15:26:05.345Z,54.20
2023-05-20T15:27:37.707Z,55.60
2023-05-20T15:29:10.031Z,55.00
2023-05-20T15:30:42.089Z,51.80
2023-05-20T15:32:14.148Z,57.80
2023-05-20T15:33:46.338Z,50.20
2023-05-20T15:35:18.348Z,49.60
2023-05-20T15:36:50.258Z,49.20
2023-05-20T15:38:22.291Z,48.20
2023-05-20T15:39:54.318Z,49.20
2023-05-20T15:41:26.364Z,49.20
2023-05-20T15:42:58.587Z,47.00
2023-05-20T15:44:31.145Z,45.80
2023-05-20T15:46:03.145Z,46.40
2023-05-20T15:47:35.165Z,47.60
2023-05-20T15:49:07.361Z,45.40
2023-05-20T15:50:39.339Z,42.00
2023-05-20T15:52:11.559Z,41.20
2023-05-20T15:53:43.521Z,47.20
2023-05-20T15:55:15.504Z,45.00
2023-05-20T15:56:47.381Z,47.20
2023-05-20T15:58:19.274Z,52.80
2023-05-20T15:59:51.195Z,50.80
2023-05-20T16:01:23.714Z,52.00
2023-05-20T16:02:56.602Z,51.40
2023-05-20T16:04:28.872Z,53.40
2023-05-20T16:06:00.955Z,48.00
2023-05-20T16:07:32.960Z,43.40
2023-05-20T16:09:04.882Z,52.20
2023-05-20T16:10:37.030Z,51.20
2023-05-20T16:12:09.098Z,51.00
2023-05-20T16:13:41.329Z,53.60
2023-05-20T16:15:13.202Z,50.20
2023-05-20T16:16:45.174Z,54.40
2023-05-20T16:18:17.224Z,51.60
2023-05-20T16:19:49.140Z,52.00
2023-05-20T16:21:21.529Z,54.60
2023-05-20T16:22:53.524Z,54.80
2023-05-20T16:24:25.626Z,66.00
2023-05-20T16:25:57.952Z,89.25
2023-05-20T16:27:29.952Z,85.25
2023-05-20T16:29:01.922Z,91.50
2023-05-20T16:30:35.218Z,79.75
2023-05-20T16:32:07.515Z,81.75
2023-05-20T16:33:39.540Z,79.00
2023-05-20T16:35:11.662Z,76.75
2023-05-20T16:36:45.355Z,71.25
2023-05-20T16:38:17.406Z,64.60
2023-05-20T16:39:49.422Z,64.60
2023-05-20T16:41:21.665Z,67.80
2023-05-20T16:42:53.657Z,62.80
2023-05-20T16:44:25.591Z,68.40
2023-05-20T16:45:58.351Z,62.20
2023-05-20T16:47:30.417Z,63.80
2023-05-20T16:49:02.479Z,59.60
2023-05-20T16:50:34.625Z,60.80
2023-05-20T16:52:07.097Z,58.60
2023-05-20T16:53:39.039Z,62.60
2023-05-20T16:55:11.442Z,56.20
2023-05-20T16:56:43.365Z,52.40
2023-05-20T16:58:15.345Z,55.60
2023-05-20T16:59:47.285Z,49.00
2023-05-20T17:01:19.452Z,54.20
2023-05-20T17:02:51.562Z,52.20
2023-05-20T17:04:23.938Z,54.40
2023-05-20T17:05:56.084Z,49.80
2023-05-20T17:07:28.117Z,52.80
2023-05-20T17:09:04.781Z,44.80
2023-05-20T17:10:36.892Z,44.80
2023-05-20T17:12:08.967Z,44.80
2023-05-20T17:13:41.832Z,45.80
2023-05-20T17:15:13.780Z,48.00
2023-05-20T17:16:46.228Z,47.40
2023-05-20T17:18:18.484Z,46.20
2023-05-20T17:19:50.462Z,51.40
2023-05-20T17:21:22.514Z,45.80
2023-05-20T17:22:54.582Z,47.00
2023-05-20T17:24:26.639Z,48.60
2023-05-20T17:25:58.736Z,50.80
2023-05-20T17:27:30.778Z,54.20
2023-05-20T17:29:02.701Z,52.60
2023-05-20T17:30:34.984Z,58.20
2023-05-20T17:32:07.432Z,57.40
2023-05-20T17:33:39.569Z,62.20
2023-05-20T17:35:11.777Z,62.20
2023-05-20T17:36:43.838Z,56.00
2023-05-20T17:38:16.254Z,56.60
2023-05-20T17:39:48.231Z,52.00
2023-05-20T17:41:20.248Z,53.80
2023-05-20T17:42:52.325Z,54.60
2023-05-20T17:44:24.206Z,54.20
2023-05-20T17:45:56.278Z,56.20
2023-05-20T17:47:28.225Z,56.80
2023-05-20T17:49:00.223Z,50.40
2023-05-20T17:50:32.303Z,52.00
2023-05-20T17:52:04.671Z,58.20
2023-05-20T17:53:36.532Z,54.20
2023-05-20T17:55:09.037Z,59.00
2023-05-20T17:56:41.736Z,54.00
2023-05-20T17:58:13.784Z,62.60
2023-05-20T17:59:45.727Z,60.80
2023-05-20T18:01:17.859Z,53.60
2023-05-20T18:02:50.019Z,66.20
2023-05-20T18:04:22.824Z,65.20
2023-05-20T18:05:56.240Z,58.60
2023-05-20T18:07:28.392Z,61.20
2023-05-20T18:09:05.200Z,57.40
2023-05-20T18:10:37.409Z,57.20
2023-05-20T18:12:09.458Z,58.40
2023-05-20T18:13:41.489Z,58.40
2023-05-20T18:15:18.514Z,62.60
2023-05-20T18:16:50.572Z,56.60
2023-05-20T18:18:22.513Z,60.40
2023-05-20T18:19:54.483Z,60.40
2023-05-20T18:21:26.635Z,56.60
2023-05-20T18:22:58.837Z,57.00
2023-05-20T18:24:30.768Z,56.00
2023-05-20T18:26:07.018Z,51.60
2023-05-20T18:27:39.769Z,59.00
2023-05-20T18:29:12.640Z,55.20
2023-05-20T18:30:44.533Z,56.20
2023-05-20T18:32:16.568Z,58.00
2023-05-20T18:33:48.441Z,46.20
2023-05-20T18:35:20.470Z,54.00
2023-05-20T18:36:52.537Z,58.20
2023-05-20T18:38:24.436Z,52.80
2023-05-20T18:39:58.440Z,56.20
2023-05-20T18:41:43.191Z,59.80
2023-05-20T18:43:18.732Z,61.00
2023-05-20T18:44:50.683Z,62.20
2023-05-20T18:46:22.682Z,54.60
2023-05-20T18:47:54.972Z,62.20
2023-05-20T18:49:27.106Z,58.40
2023-05-20T18:50:59.072Z,63.60
2023-05-20T18:52:30.976Z,57.20
2023-05-20T18:54:02.892Z,62.60
2023-05-20T18:55:34.955Z,68.00
2023-05-20T18:57:08.221Z,70.50
2023-05-20T18:58:40.140Z,65.50
2023-05-20T19:00:12.822Z,70.50
2023-05-20T19:01:44.786Z,70.25
2023-05-20T19:03:17.207Z,70.00
2023-05-20T19:04:49.231Z,71.75
2023-05-20T19:06:22.109Z,68.50
2023-05-20T19:07:54.091Z,70.50
2023-05-20T19:09:26.129Z,73.25
2023-05-20T19:10:58.051Z,70.50
2023-05-20T19:12:30.018Z,74.00
2023-05-20T19:14:02.338Z,70.75
2023-05-20T19:15:34.444Z,73.50
2023-05-20T19:17:06.699Z,70.75
2023-05-20T19:18:38.815Z,71.50
2023-05-20T19:20:10.993Z,72.25
2023-05-20T19:21:44.361Z,73.00
2023-05-20T19:23:16.366Z,70.25
2023-05-20T19:24:48.269Z,71.50
2023-05-20T19:26:20.171Z,71.50
2023-05-20T19:27:52.124Z,74.25
2023-05-20T19:29:24.066Z,72.50
2023-05-20T19:30:56.139Z,76.50
2023-05-20T19:32:28.098Z,73.25
2023-05-20T19:34:00.165Z,71.50
2023-05-20T19:35:32.716Z,70.75
2023-05-20T19:37:04.860Z,73.00
2023-05-20T19:38:36.697Z,77.50
2023-05-20T19:40:09.308Z,73.75
2023-05-20T19:41:41.465Z,72.25
2023-05-20T19:43:13.422Z,76.00
2023-05-20T19:44:46.771Z,74.75
2023-05-20T19:46:18.968Z,78.75
2023-05-20T19:47:51.076Z,72.75
2023-05-20T19:49:23.079Z,77.25
2023-05-20T19:50:54.964Z,73.50
2023-05-20T19:52:26.914Z,74.25
2023-05-20T19:53:58.903Z,77.75
2023-05-20T19:55:30.851Z,76.25
2023-05-20T19:57:02.746Z,79.50
2023-05-20T19:58:34.732Z,81.75
2023-05-20T20:00:07.514Z,80.75
2023-05-20T20:01:45.037Z,82.50
2023-05-20T20:03:17.016Z,80.50
2023-05-20T20:04:49.704Z,79.00
2023-05-20T20:06:21.697Z,80.75
2023-05-20T20:07:53.744Z,79.00
2023-05-20T20:09:25.689Z,85.00
2023-05-20T20:10:57.686Z,80.50
2023-05-20T20:12:29.624Z,78.00
2023-05-20T20:14:01.551Z,83.00
2023-05-20T20:15:33.619Z,85.00
2023-05-20T20:17:06.478Z,78.75
2023-05-20T20:18:38.396Z,76.50
2023-05-20T20:20:10.790Z,77.25
2023-05-20T20:21:43.140Z,75.25
2023-05-20T20:23:15.102Z,81.00
2023-05-20T20:24:47.271Z,77.00
2023-05-20T20:26:22.830Z,79.00
2023-05-20T20:27:54.925Z,77.50
2023-05-20T20:29:26.901Z,76.75
2023-05-20T20:30:58.744Z,79.25
2023-05-20T20:32:30.780Z,78.75
2023-05-20T20:34:02.692Z,79.25
2023-05-20T20:35:34.984Z,76.75
2023-05-20T20:37:07.146Z,79.25
2023-05-20T20:38:39.117Z,79.00
2023-05-20T20:40:13.876Z,75.00
2023-05-20T20:41:52.361Z,78.25
2023-05-20T20:43:24.251Z,76.75
2023-05-20T20:44:56.291Z,80.75
2023-05-20T20:46:28.146Z,82.00
2023-05-20T20:48:01.662Z,63.40
2023-05-20T20:49:33.749Z,74.50
2023-05-20T20:51:05.793Z,49.40
2023-05-20T20:52:42.894Z,41.00
2023-05-20T20:54:14.995Z,51.20
2023-05-20T20:55:46.875Z,58.80
2023-05-20T20:57:18.882Z,60.60
2023-05-20T20:58:54.155Z,67.20
2023-05-20T21:00:27.098Z,65.80
2023-05-20T21:01:59.081Z,57.00
2023-05-20T21:03:31.476Z,57.00
2023-05-20T21:05:03.405Z,55.20
2023-05-20T21:06:37.903Z,63.00
2023-05-20T21:08:10.028Z,58.20
2023-05-20T21:09:41.990Z,62.60
2023-05-20T21:11:14.001Z,62.20
2023-05-20T21:12:46.069Z,60.80
2023-05-20T21:14:17.928Z,55.60
2023-05-20T21:15:49.871Z,64.40
2023-05-20T21:17:21.774Z,54.40
2023-05-20T21:18:53.834Z,58.40
2023-05-20T21:20:25.784Z,59.80
2023-05-20T21:21:57.838Z,57.40
2023-05-20T21:23:29.743Z,53.00
2023-05-20T21:25:01.670Z,56.60
2023-05-20T21:26:33.597Z,61.20
2023-05-20T21:28:05.657Z,58.00
2023-05-20T21:29:39.617Z,60.40
2023-05-20T21:31:12.215Z,59.00
2023-05-20T21:32:44.220Z,59.80
2023-05-20T21:34:16.225Z,63.20
2023-05-20T21:35:48.068Z,58.00
2023-05-20T21:37:19.996Z,62.00
2023-05-20T21:38:51.871Z,63.40
2023-05-20T21:40:24.052Z,62.20
2023-05-20T21:41:56.071Z,63.20
2023-05-20T21:43:28.201Z,64.40
2023-05-20T21:45:00.188Z,51.80
2023-05-20T21:46:32.315Z,56.60
2023-05-20T21:48:04.480Z,63.60
2023-05-20T21:49:36.417Z,60.00
2023-05-20T21:51:08.325Z,56.80
2023-05-20T21:52:40.266Z,59.60
2023-05-20T21:54:12.238Z,59.60
2023-05-20T21:55:44.129Z,59.80
2023-05-20T21:57:16.058Z,54.20
2023-05-20T21:58:48.020Z,63.00
2023-05-20T22:00:20.801Z,67.00
2023-05-20T22:01:52.777Z,69.75
2023-05-20T22:03:25.230Z,64.40
2023-05-20T22:04:57.884Z,63.60
2023-05-20T22:06:29.722Z,69.80
2023-05-20T22:08:02.028Z,68.75
2023-05-20T22:09:33.886Z,63.80
2023-05-20T22:11:05.879Z,65.25
2023-05-20T22:12:42.513Z,70.75
2023-05-20T22:14:16.381Z,68.50
2023-05-20T22:15:48.345Z,68.75
2023-05-20T22:17:20.684Z,68.50
2023-05-20T22:18:53.954Z,70.75
2023-05-20T22:20:25.976Z,69.75
2023-05-20T22:21:57.895Z,69.00
2023-05-20T22:23:29.895Z,66.75
2023-05-20T22:25:02.400Z,69.75
2023-05-20T22:26:34.595Z,71.75
2023-05-20T22:28:06.546Z,70.75
2023-05-20T22:29:38.456Z,63.25
2023-05-20T22:31:10.384Z,67.20
2023-05-20T22:32:42.455Z,65.40
2023-05-20T22:34:14.432Z,68.20
